sensor_id;sensor_type;location;lat;lon;timestamp;P1;durP1;ratioP1;P2;durP2;ratioP2
79640;SDS011;69115;49.904;14.390;2023-08-08T00:00:42;4.20;;;2.17;;
79640;SDS011;69115;49.904;14.390;2023-08-08T00:03:07;3.85;;;2.10;;
79640;SDS011;69115;49.904;14.390;2023-08-08T00:05:34;4.47;;;2.10;;
79640;SDS011;69115;49.904;14.390;2023-08-08T00:07:59;6.55;;;2.40;;
79640;SDS011;69115;49.904;14.390;2023-08-08T00:10:25;3.85;;;2.25;;
79640;SDS011;69115;49.904;14.390;2023-08-08T00:12:50;5.63;;;2.38;;
79640;SDS011;69115;49.904;14.390;2023-08-08T00:15:15;5.47;;;2.30;;
79640;SDS011;69115;49.904;14.390;2023-08-08T00:17:41;4.20;;;2.65;;
79640;SDS011;69115;49.904;14.390;2023-08-08T00:20:07;6.72;;;2.55;;
79640;SDS011;69115;49.904;14.390;2023-08-08T00:22:33;5.68;;;2.42;;
79640;SDS011;69115;49.904;14.390;2023-08-08T00:24:58;6.35;;;2.58;;
79640;SDS011;69115;49.904;14.390;2023-08-08T00:27:24;4.68;;;2.58;;
79640;SDS011;69115;49.904;14.390;2023-08-08T00:29:49;4.60;;;2.80;;
79640;SDS011;69115;49.904;14.390;2023-08-08T00:32:16;5.05;;;2.92;;
79640;SDS011;69115;49.904;14.390;2023-08-08T00:34:41;8.07;;;3.33;;
79640;SDS011;69115;49.904;14.390;2023-08-08T00:37:06;7.53;;;2.78;;
79640;SDS011;69115;49.904;14.390;2023-08-08T00:39:32;4.53;;;2.47;;
79640;SDS011;69115;49.904;14.390;2023-08-08T00:41:57;5.80;;;3.00;;
79640;SDS011;69115;49.904;14.390;2023-08-08T00:44:23;5.05;;;2.53;;
79640;SDS011;69115;49.904;14.390;2023-08-08T00:46:48;6.10;;;2.88;;
79640;SDS011;69115;49.904;14.390;2023-08-08T00:49:14;5.20;;;2.50;;
79640;SDS011;69115;49.904;14.390;2023-08-08T00:51:39;5.20;;;3.00;;
79640;SDS011;69115;49.904;14.390;2023-08-08T00:54:05;6.13;;;3.08;;
79640;SDS011;69115;49.904;14.390;2023-08-08T00:56:31;6.05;;;3.13;;
79640;SDS011;69115;49.904;14.390;2023-08-08T00:58:57;6.88;;;2.67;;
79640;SDS011;69115;49.904;14.390;2023-08-08T01:01:22;7.63;;;2.70;;
79640;SDS011;69115;49.904;14.390;2023-08-08T01:03:48;5.38;;;2.80;;
79640;SDS011;69115;49.904;14.390;2023-08-08T01:06:25;5.20;;;2.63;;
79640;SDS011;69115;49.904;14.390;2023-08-08T01:12:13;7.03;;;2.53;;
79640;SDS011;69115;49.904;14.390;2023-08-08T01:14:40;5.63;;;2.70;;
79640;SDS011;69115;49.904;14.390;2023-08-08T01:17:08;4.78;;;2.50;;
79640;SDS011;69115;49.904;14.390;2023-08-08T01:19:34;4.07;;;2.42;;
79640;SDS011;69115;49.904;14.390;2023-08-08T01:22:04;7.25;;;2.72;;
79640;SDS011;69115;49.904;14.390;2023-08-08T01:24:32;7.28;;;2.70;;
79640;SDS011;69115;49.904;14.390;2023-08-08T01:26:59;6.97;;;3.33;;
79640;SDS011;69115;49.904;14.390;2023-08-08T01:29:26;4.55;;;2.63;;
79640;SDS011;69115;49.904;14.390;2023-08-08T01:31:52;4.45;;;2.70;;
79640;SDS011;69115;49.904;14.390;2023-08-08T01:34:18;5.07;;;2.50;;
79640;SDS011;69115;49.904;14.390;2023-08-08T01:39:19;5.75;;;2.35;;
79640;SDS011;69115;49.904;14.390;2023-08-08T01:41:48;6.63;;;2.28;;
79640;SDS011;69115;49.904;14.390;2023-08-08T01:44:13;4.97;;;2.40;;
79640;SDS011;69115;49.904;14.390;2023-08-08T01:46:39;5.38;;;2.40;;
79640;SDS011;69115;49.904;14.390;2023-08-08T01:49:05;7.47;;;2.50;;
79640;SDS011;69115;49.904;14.390;2023-08-08T01:51:30;5.72;;;2.38;;
79640;SDS011;69115;49.904;14.390;2023-08-08T01:53:56;6.97;;;2.42;;
79640;SDS011;69115;49.904;14.390;2023-08-08T01:56:21;6.03;;;2.38;;
79640;SDS011;69115;49.904;14.390;2023-08-08T01:58:47;6.63;;;2.42;;
79640;SDS011;69115;49.904;14.390;2023-08-08T02:01:12;4.38;;;2.30;;
79640;SDS011;69115;49.904;14.390;2023-08-08T02:03:38;5.18;;;2.38;;
79640;SDS011;69115;49.904;14.390;2023-08-08T02:06:03;4.80;;;2.42;;
79640;SDS011;69115;49.904;14.390;2023-08-08T02:08:29;3.90;;;2.40;;
79640;SDS011;69115;49.904;14.390;2023-08-08T02:10:54;3.20;;;2.25;;
79640;SDS011;69115;49.904;14.390;2023-08-08T02:13:19;5.25;;;2.70;;
79640;SDS011;69115;49.904;14.390;2023-08-08T02:15:45;4.90;;;2.30;;
79640;SDS011;69115;49.904;14.390;2023-08-08T02:18:11;5.38;;;2.20;;
79640;SDS011;69115;49.904;14.390;2023-08-08T02:20:36;4.97;;;2.30;;
79640;SDS011;69115;49.904;14.390;2023-08-08T02:23:02;7.10;;;2.58;;
79640;SDS011;69115;49.904;14.390;2023-08-08T02:25:27;4.32;;;2.38;;
79640;SDS011;69115;49.904;14.390;2023-08-08T02:27:53;4.93;;;2.40;;
79640;SDS011;69115;49.904;14.390;2023-08-08T02:30:18;7.03;;;2.38;;
79640;SDS011;69115;49.904;14.390;2023-08-08T02:32:44;4.75;;;2.40;;
79640;SDS011;69115;49.904;14.390;2023-08-08T02:35:09;5.05;;;2.50;;
79640;SDS011;69115;49.904;14.390;2023-08-08T02:37:35;5.82;;;2.72;;
79640;SDS011;69115;49.904;14.390;2023-08-08T02:40:00;6.90;;;2.63;;
79640;SDS011;69115;49.904;14.390;2023-08-08T02:42:26;3.33;;;2.15;;
79640;SDS011;69115;49.904;14.390;2023-08-08T02:44:51;3.75;;;2.40;;
79640;SDS011;69115;49.904;14.390;2023-08-08T02:47:17;4.55;;;2.45;;
79640;SDS011;69115;49.904;14.390;2023-08-08T02:49:42;5.03;;;2.42;;
79640;SDS011;69115;49.904;14.390;2023-08-08T02:52:08;3.60;;;2.15;;
79640;SDS011;69115;49.904;14.390;2023-08-08T02:54:33;6.47;;;2.30;;
79640;SDS011;69115;49.904;14.390;2023-08-08T02:56:59;5.93;;;2.20;;
79640;SDS011;69115;49.904;14.390;2023-08-08T02:59:25;5.65;;;2.10;;
79640;SDS011;69115;49.904;14.390;2023-08-08T03:01:50;7.57;;;2.80;;
79640;SDS011;69115;49.904;14.390;2023-08-08T03:04:16;4.28;;;2.22;;
79640;SDS011;69115;49.904;14.390;2023-08-08T03:06:42;4.35;;;2.15;;
79640;SDS011;69115;49.904;14.390;2023-08-08T03:09:07;5.90;;;2.40;;
79640;SDS011;69115;49.904;14.390;2023-08-08T03:11:33;4.10;;;2.00;;
79640;SDS011;69115;49.904;14.390;2023-08-08T03:13:58;3.90;;;2.20;;
79640;SDS011;69115;49.904;14.390;2023-08-08T03:16:24;5.78;;;2.40;;
79640;SDS011;69115;49.904;14.390;2023-08-08T03:18:49;6.43;;;2.60;;
79640;SDS011;69115;49.904;14.390;2023-08-08T03:21:15;5.85;;;2.40;;
79640;SDS011;69115;49.904;14.390;2023-08-08T03:23:40;3.95;;;2.35;;
79640;SDS011;69115;49.904;14.390;2023-08-08T03:26:06;4.03;;;2.25;;
79640;SDS011;69115;49.904;14.390;2023-08-08T03:28:31;4.75;;;2.35;;
79640;SDS011;69115;49.904;14.390;2023-08-08T03:30:56;4.20;;;2.53;;
79640;SDS011;69115;49.904;14.390;2023-08-08T03:33:22;3.65;;;2.40;;
79640;SDS011;69115;49.904;14.390;2023-08-08T03:35:47;6.20;;;2.28;;
79640;SDS011;69115;49.904;14.390;2023-08-08T03:38:13;4.97;;;2.55;;
79640;SDS011;69115;49.904;14.390;2023-08-08T03:40:38;3.40;;;2.47;;
79640;SDS011;69115;49.904;14.390;2023-08-08T03:43:04;4.38;;;2.30;;
79640;SDS011;69115;49.904;14.390;2023-08-08T03:45:29;5.15;;;2.30;;
79640;SDS011;69115;49.904;14.390;2023-08-08T03:47:55;5.25;;;2.40;;
79640;SDS011;69115;49.904;14.390;2023-08-08T03:50:20;5.40;;;2.30;;
79640;SDS011;69115;49.904;14.390;2023-08-08T03:52:46;3.75;;;2.13;;
79640;SDS011;69115;49.904;14.390;2023-08-08T03:55:11;5.05;;;2.17;;
79640;SDS011;69115;49.904;14.390;2023-08-08T03:57:37;3.22;;;2.20;;
79640;SDS011;69115;49.904;14.390;2023-08-08T04:00:03;3.67;;;2.20;;
79640;SDS011;69115;49.904;14.390;2023-08-08T04:02:29;4.97;;;2.28;;
79640;SDS011;69115;49.904;14.390;2023-08-08T04:04:55;5.80;;;2.25;;
79640;SDS011;69115;49.904;14.390;2023-08-08T04:07:20;3.85;;;2.05;;
79640;SDS011;69115;49.904;14.390;2023-08-08T04:09:46;4.50;;;2.40;;
79640;SDS011;69115;49.904;14.390;2023-08-08T04:12:11;3.20;;;2.35;;
79640;SDS011;69115;49.904;14.390;2023-08-08T04:14:37;4.40;;;2.30;;
79640;SDS011;69115;49.904;14.390;2023-08-08T04:17:05;6.50;;;2.60;;
79640;SDS011;69115;49.904;14.390;2023-08-08T04:19:31;4.30;;;2.40;;
79640;SDS011;69115;49.904;14.390;2023-08-08T04:21:57;3.75;;;2.30;;
79640;SDS011;69115;49.904;14.390;2023-08-08T04:24:22;4.18;;;2.30;;
79640;SDS011;69115;49.904;14.390;2023-08-08T04:26:47;3.35;;;2.40;;
79640;SDS011;69115;49.904;14.390;2023-08-08T04:29:13;4.22;;;2.15;;
79640;SDS011;69115;49.904;14.390;2023-08-08T04:31:38;3.75;;;2.33;;
79640;SDS011;69115;49.904;14.390;2023-08-08T04:34:04;4.53;;;2.40;;
79640;SDS011;69115;49.904;14.390;2023-08-08T04:36:29;3.97;;;2.40;;
79640;SDS011;69115;49.904;14.390;2023-08-08T04:38:55;4.75;;;2.22;;
79640;SDS011;69115;49.904;14.390;2023-08-08T04:41:20;4.15;;;2.47;;
79640;SDS011;69115;49.904;14.390;2023-08-08T04:43:46;5.15;;;1.92;;
79640;SDS011;69115;49.904;14.390;2023-08-08T04:46:11;5.18;;;2.20;;
79640;SDS011;69115;49.904;14.390;2023-08-08T04:48:37;3.90;;;2.45;;
79640;SDS011;69115;49.904;14.390;2023-08-08T04:51:05;3.85;;;2.35;;
79640;SDS011;69115;49.904;14.390;2023-08-08T04:53:31;4.22;;;2.22;;
79640;SDS011;69115;49.904;14.390;2023-08-08T04:55:57;2.80;;;2.00;;
79640;SDS011;69115;49.904;14.390;2023-08-08T04:58:22;3.70;;;1.90;;
79640;SDS011;69115;49.904;14.390;2023-08-08T05:00:48;3.92;;;2.20;;
79640;SDS011;69115;49.904;14.390;2023-08-08T05:03:15;3.05;;;1.98;;
79640;SDS011;69115;49.904;14.390;2023-08-08T05:05:40;4.05;;;2.03;;
79640;SDS011;69115;49.904;14.390;2023-08-08T05:08:05;4.82;;;2.20;;
79640;SDS011;69115;49.904;14.390;2023-08-08T05:10:31;3.58;;;2.08;;
79640;SDS011;69115;49.904;14.390;2023-08-08T05:12:57;4.35;;;2.40;;
79640;SDS011;69115;49.904;14.390;2023-08-08T05:15:22;3.30;;;2.17;;
79640;SDS011;69115;49.904;14.390;2023-08-08T05:17:48;4.68;;;2.40;;
79640;SDS011;69115;49.904;14.390;2023-08-08T05:20:13;3.88;;;2.17;;
79640;SDS011;69115;49.904;14.390;2023-08-08T05:22:39;4.80;;;2.28;;
79640;SDS011;69115;49.904;14.390;2023-08-08T05:25:04;3.90;;;2.30;;
79640;SDS011;69115;49.904;14.390;2023-08-08T05:27:31;5.70;;;2.35;;
79640;SDS011;69115;49.904;14.390;2023-08-08T05:29:59;5.40;;;2.50;;
79640;SDS011;69115;49.904;14.390;2023-08-08T05:32:25;3.85;;;2.40;;
79640;SDS011;69115;49.904;14.390;2023-08-08T05:34:50;3.80;;;2.40;;
79640;SDS011;69115;49.904;14.390;2023-08-08T05:37:16;3.78;;;2.60;;
79640;SDS011;69115;49.904;14.390;2023-08-08T05:39:42;3.75;;;2.47;;
79640;SDS011;69115;49.904;14.390;2023-08-08T05:42:08;2.80;;;2.00;;
79640;SDS011;69115;49.904;14.390;2023-08-08T05:44:33;3.53;;;2.20;;
79640;SDS011;69115;49.904;14.390;2023-08-08T05:46:59;4.18;;;2.17;;
79640;SDS011;69115;49.904;14.390;2023-08-08T05:49:24;3.38;;;2.20;;
79640;SDS011;69115;49.904;14.390;2023-08-08T05:51:50;7.63;;;2.20;;
79640;SDS011;69115;49.904;14.390;2023-08-08T05:54:15;4.72;;;2.20;;
79640;SDS011;69115;49.904;14.390;2023-08-08T05:56:41;3.65;;;2.10;;
79640;SDS011;69115;49.904;14.390;2023-08-08T05:59:06;4.82;;;2.55;;
79640;SDS011;69115;49.904;14.390;2023-08-08T06:01:32;3.95;;;2.40;;
79640;SDS011;69115;49.904;14.390;2023-08-08T06:03:58;3.50;;;2.33;;
79640;SDS011;69115;49.904;14.390;2023-08-08T06:06:25;6.68;;;2.67;;
79640;SDS011;69115;49.904;14.390;2023-08-08T06:08:51;3.80;;;2.60;;
79640;SDS011;69115;49.904;14.390;2023-08-08T06:11:17;3.42;;;2.22;;
79640;SDS011;69115;49.904;14.390;2023-08-08T06:13:42;3.92;;;2.20;;
79640;SDS011;69115;49.904;14.390;2023-08-08T06:16:08;4.28;;;2.40;;
79640;SDS011;69115;49.904;14.390;2023-08-08T06:18:34;4.45;;;2.20;;
79640;SDS011;69115;49.904;14.390;2023-08-08T06:21:00;3.90;;;2.38;;
79640;SDS011;69115;49.904;14.390;2023-08-08T06:23:25;3.63;;;2.30;;
79640;SDS011;69115;49.904;14.390;2023-08-08T06:25:51;4.20;;;2.42;;
79640;SDS011;69115;49.904;14.390;2023-08-08T06:28:16;4.03;;;2.28;;
79640;SDS011;69115;49.904;14.390;2023-08-08T06:30:42;3.60;;;2.30;;
79640;SDS011;69115;49.904;14.390;2023-08-08T06:33:07;5.22;;;2.35;;
79640;SDS011;69115;49.904;14.390;2023-08-08T06:35:33;7.15;;;2.45;;
79640;SDS011;69115;49.904;14.390;2023-08-08T06:37:59;4.88;;;2.40;;
79640;SDS011;69115;49.904;14.390;2023-08-08T06:40:24;5.00;;;2.40;;
79640;SDS011;69115;49.904;14.390;2023-08-08T06:46:11;5.15;;;2.33;;
79640;SDS011;69115;49.904;14.390;2023-08-08T06:48:37;4.13;;;2.40;;
79640;SDS011;69115;49.904;14.390;2023-08-08T06:51:07;7.43;;;2.25;;
79640;SDS011;69115;49.904;14.390;2023-08-08T06:53:32;5.55;;;2.60;;
79640;SDS011;69115;49.904;14.390;2023-08-08T06:55:57;4.03;;;2.28;;
79640;SDS011;69115;49.904;14.390;2023-08-08T06:58:23;3.45;;;2.35;;
79640;SDS011;69115;49.904;14.390;2023-08-08T07:00:49;3.85;;;2.38;;
79640;SDS011;69115;49.904;14.390;2023-08-08T07:03:15;3.35;;;2.05;;
79640;SDS011;69115;49.904;14.390;2023-08-08T07:05:41;3.85;;;2.47;;
79640;SDS011;69115;49.904;14.390;2023-08-08T07:08:06;5.35;;;2.67;;
79640;SDS011;69115;49.904;14.390;2023-08-08T07:10:33;6.05;;;2.40;;
79640;SDS011;69115;49.904;14.390;2023-08-08T07:13:00;3.35;;;2.20;;
79640;SDS011;69115;49.904;14.390;2023-08-08T07:15:26;5.55;;;2.20;;
79640;SDS011;69115;49.904;14.390;2023-08-08T07:17:52;3.75;;;2.30;;
79640;SDS011;69115;49.904;14.390;2023-08-08T07:20:18;4.97;;;2.60;;
79640;SDS011;69115;49.904;14.390;2023-08-08T07:22:44;6.10;;;2.75;;
79640;SDS011;69115;49.904;14.390;2023-08-08T07:25:09;6.00;;;2.40;;
79640;SDS011;69115;49.904;14.390;2023-08-08T07:27:36;3.60;;;2.33;;
79640;SDS011;69115;49.904;14.390;2023-08-08T07:30:02;5.03;;;2.17;;
79640;SDS011;69115;49.904;14.390;2023-08-08T07:32:28;5.25;;;2.30;;
79640;SDS011;69115;49.904;14.390;2023-08-08T07:34:54;3.88;;;2.40;;
79640;SDS011;69115;49.904;14.390;2023-08-08T07:37:28;5.75;;;2.40;;
79640;SDS011;69115;49.904;14.390;2023-08-08T07:39:54;5.43;;;2.33;;
79640;SDS011;69115;49.904;14.390;2023-08-08T07:42:20;4.88;;;2.67;;
79640;SDS011;69115;49.904;14.390;2023-08-08T07:44:45;4.50;;;2.50;;
79640;SDS011;69115;49.904;14.390;2023-08-08T07:49:41;3.08;;;2.00;;
79640;SDS011;69115;49.904;14.390;2023-08-08T07:52:12;4.20;;;2.33;;
79640;SDS011;69115;49.904;14.390;2023-08-08T07:54:39;4.80;;;2.40;;
79640;SDS011;69115;49.904;14.390;2023-08-08T07:57:05;5.75;;;2.22;;
79640;SDS011;69115;49.904;14.390;2023-08-08T07:59:30;4.25;;;2.40;;
79640;SDS011;69115;49.904;14.390;2023-08-08T08:01:56;4.65;;;2.40;;
79640;SDS011;69115;49.904;14.390;2023-08-08T08:04:33;3.65;;;2.28;;
79640;SDS011;69115;49.904;14.390;2023-08-08T08:07:00;4.07;;;2.10;;
79640;SDS011;69115;49.904;14.390;2023-08-08T08:09:26;2.95;;;2.00;;
79640;SDS011;69115;49.904;14.390;2023-08-08T08:11:51;4.90;;;2.50;;
79640;SDS011;69115;49.904;14.390;2023-08-08T08:14:17;4.63;;;2.22;;
79640;SDS011;69115;49.904;14.390;2023-08-08T08:16:43;3.50;;;2.05;;
79640;SDS011;69115;49.904;14.390;2023-08-08T08:19:09;4.45;;;2.10;;
79640;SDS011;69115;49.904;14.390;2023-08-08T08:21:36;4.20;;;2.20;;
79640;SDS011;69115;49.904;14.390;2023-08-08T08:24:02;3.55;;;2.20;;
79640;SDS011;69115;49.904;14.390;2023-08-08T08:26:27;3.33;;;2.22;;
79640;SDS011;69115;49.904;14.390;2023-08-08T08:28:53;3.10;;;2.10;;
79640;SDS011;69115;49.904;14.390;2023-08-08T08:31:18;3.78;;;2.20;;
79640;SDS011;69115;49.904;14.390;2023-08-08T08:33:44;2.80;;;2.03;;
79640;SDS011;69115;49.904;14.390;2023-08-08T08:36:09;2.97;;;2.03;;
79640;SDS011;69115;49.904;14.390;2023-08-08T08:38:35;3.70;;;1.90;;
79640;SDS011;69115;49.904;14.390;2023-08-08T08:41:00;3.40;;;2.20;;
79640;SDS011;69115;49.904;14.390;2023-08-08T08:43:27;3.00;;;1.95;;
79640;SDS011;69115;49.904;14.390;2023-08-08T08:45:53;4.20;;;2.15;;
79640;SDS011;69115;49.904;14.390;2023-08-08T08:48:19;5.53;;;2.45;;
79640;SDS011;69115;49.904;14.390;2023-08-08T08:50:47;4.40;;;2.28;;
79640;SDS011;69115;49.904;14.390;2023-08-08T08:53:13;4.53;;;2.10;;
79640;SDS011;69115;49.904;14.390;2023-08-08T08:55:40;5.47;;;2.83;;
79640;SDS011;69115;49.904;14.390;2023-08-08T08:58:08;8.60;;;2.08;;
79640;SDS011;69115;49.904;14.390;2023-08-08T09:00:43;3.40;;;2.20;;
79640;SDS011;69115;49.904;14.390;2023-08-08T09:03:10;3.30;;;2.10;;
79640;SDS011;69115;49.904;14.390;2023-08-08T09:05:36;5.38;;;2.35;;
79640;SDS011;69115;49.904;14.390;2023-08-08T09:08:02;4.25;;;2.28;;
79640;SDS011;69115;49.904;14.390;2023-08-08T09:10:27;3.42;;;2.22;;
79640;SDS011;69115;49.904;14.390;2023-08-08T09:12:56;3.95;;;2.17;;
79640;SDS011;69115;49.904;14.390;2023-08-08T09:15:22;4.60;;;2.25;;
79640;SDS011;69115;49.904;14.390;2023-08-08T09:17:48;4.32;;;2.20;;
79640;SDS011;69115;49.904;14.390;2023-08-08T09:20:13;3.88;;;2.15;;
79640;SDS011;69115;49.904;14.390;2023-08-08T09:22:39;4.47;;;2.00;;
79640;SDS011;69115;49.904;14.390;2023-08-08T09:25:05;2.90;;;2.00;;
79640;SDS011;69115;49.904;14.390;2023-08-08T09:27:38;3.17;;;2.17;;
79640;SDS011;69115;49.904;14.390;2023-08-08T09:30:03;4.13;;;2.28;;
79640;SDS011;69115;49.904;14.390;2023-08-08T09:32:30;3.50;;;2.05;;
79640;SDS011;69115;49.904;14.390;2023-08-08T09:34:56;3.63;;;2.28;;
79640;SDS011;69115;49.904;14.390;2023-08-08T09:37:22;4.70;;;2.22;;
79640;SDS011;69115;49.904;14.390;2023-08-08T09:39:58;4.05;;;2.20;;
79640;SDS011;69115;49.904;14.390;2023-08-08T09:42:28;4.65;;;2.15;;
79640;SDS011;69115;49.904;14.390;2023-08-08T09:44:55;3.42;;;2.22;;
79640;SDS011;69115;49.904;14.390;2023-08-08T09:47:22;3.15;;;2.00;;
79640;SDS011;69115;49.904;14.390;2023-08-08T09:49:48;4.72;;;2.17;;
79640;SDS011;69115;49.904;14.390;2023-08-08T09:52:14;4.25;;;2.10;;
79640;SDS011;69115;49.904;14.390;2023-08-08T09:54:40;3.75;;;2.20;;
79640;SDS011;69115;49.904;14.390;2023-08-08T09:57:06;3.83;;;2.00;;
79640;SDS011;69115;49.904;14.390;2023-08-08T09:59:33;3.15;;;1.95;;
79640;SDS011;69115;49.904;14.390;2023-08-08T10:01:59;3.60;;;1.83;;
79640;SDS011;69115;49.904;14.390;2023-08-08T10:04:26;3.42;;;2.00;;
79640;SDS011;69115;49.904;14.390;2023-08-08T10:06:51;2.63;;;1.98;;
79640;SDS011;69115;49.904;14.390;2023-08-08T10:09:17;2.85;;;1.98;;
79640;SDS011;69115;49.904;14.390;2023-08-08T10:11:42;3.88;;;2.13;;
79640;SDS011;69115;49.904;14.390;2023-08-08T10:14:09;3.33;;;1.92;;
79640;SDS011;69115;49.904;14.390;2023-08-08T10:16:36;2.70;;;1.73;;
79640;SDS011;69115;49.904;14.390;2023-08-08T10:19:03;3.67;;;2.00;;
79640;SDS011;69115;49.904;14.390;2023-08-08T10:21:34;3.25;;;1.73;;
79640;SDS011;69115;49.904;14.390;2023-08-08T10:24:01;3.60;;;1.77;;
79640;SDS011;69115;49.904;14.390;2023-08-08T10:26:28;6.40;;;2.25;;
79640;SDS011;69115;49.904;14.390;2023-08-08T10:28:57;3.33;;;1.85;;
79640;SDS011;69115;49.904;14.390;2023-08-08T10:33:49;3.25;;;1.83;;
79640;SDS011;69115;49.904;14.390;2023-08-08T10:36:15;5.28;;;1.90;;
79640;SDS011;69115;49.904;14.390;2023-08-08T10:38:42;4.25;;;1.98;;
79640;SDS011;69115;49.904;14.390;2023-08-08T10:41:16;4.95;;;2.00;;
79640;SDS011;69115;49.904;14.390;2023-08-08T10:43:50;3.50;;;2.03;;
79640;SDS011;69115;49.904;14.390;2023-08-08T10:46:27;6.35;;;2.20;;
79640;SDS011;69115;49.904;14.390;2023-08-08T10:48:57;3.25;;;2.00;;
79640;SDS011;69115;49.904;14.390;2023-08-08T10:51:46;3.50;;;2.15;;
79640;SDS011;69115;49.904;14.390;2023-08-08T10:54:16;3.45;;;2.10;;
79640;SDS011;69115;49.904;14.390;2023-08-08T10:56:49;3.42;;;1.80;;
79640;SDS011;69115;49.904;14.390;2023-08-08T10:59:17;3.65;;;1.80;;
79640;SDS011;69115;49.904;14.390;2023-08-08T11:01:48;3.33;;;1.90;;
79640;SDS011;69115;49.904;14.390;2023-08-08T11:04:19;4.20;;;1.80;;
79640;SDS011;69115;49.904;14.390;2023-08-08T11:06:46;2.83;;;1.83;;
79640;SDS011;69115;49.904;14.390;2023-08-08T11:09:13;3.35;;;1.83;;
79640;SDS011;69115;49.904;14.390;2023-08-08T11:11:39;3.55;;;1.70;;
79640;SDS011;69115;49.904;14.390;2023-08-08T11:14:16;2.78;;;1.70;;
79640;SDS011;69115;49.904;14.390;2023-08-08T11:16:43;4.15;;;1.80;;
79640;SDS011;69115;49.904;14.390;2023-08-08T11:19:10;4.75;;;1.90;;
79640;SDS011;69115;49.904;14.390;2023-08-08T11:21:39;3.22;;;1.70;;
79640;SDS011;69115;49.904;14.390;2023-08-08T11:24:06;2.75;;;1.70;;
79640;SDS011;69115;49.904;14.390;2023-08-08T11:26:36;5.93;;;1.90;;
79640;SDS011;69115;49.904;14.390;2023-08-08T11:29:03;2.13;;;1.60;;
79640;SDS011;69115;49.904;14.390;2023-08-08T11:31:30;2.60;;;1.60;;
79640;SDS011;69115;49.904;14.390;2023-08-08T11:33:59;5.65;;;1.83;;
79640;SDS011;69115;49.904;14.390;2023-08-08T11:36:25;3.42;;;1.73;;
79640;SDS011;69115;49.904;14.390;2023-08-08T11:38:51;4.38;;;1.90;;
79640;SDS011;69115;49.904;14.390;2023-08-08T11:41:19;2.72;;;1.80;;
79640;SDS011;69115;49.904;14.390;2023-08-08T11:43:47;3.10;;;1.70;;
79640;SDS011;69115;49.904;14.390;2023-08-08T11:46:14;2.60;;;1.63;;
79640;SDS011;69115;49.904;14.390;2023-08-08T11:48:40;3.03;;;1.80;;
79640;SDS011;69115;49.904;14.390;2023-08-08T11:51:06;3.92;;;1.75;;
79640;SDS011;69115;49.904;14.390;2023-08-08T11:53:32;2.95;;;1.80;;
79640;SDS011;69115;49.904;14.390;2023-08-08T11:55:59;2.60;;;1.73;;
79640;SDS011;69115;49.904;14.390;2023-08-08T11:58:25;3.35;;;1.70;;
79640;SDS011;69115;49.904;14.390;2023-08-08T12:00:51;4.32;;;1.90;;
79640;SDS011;69115;49.904;14.390;2023-08-08T12:03:20;3.28;;;1.60;;
79640;SDS011;69115;49.904;14.390;2023-08-08T12:05:49;2.60;;;1.70;;
79640;SDS011;69115;49.904;14.390;2023-08-08T12:08:18;3.00;;;1.70;;
79640;SDS011;69115;49.904;14.390;2023-08-08T12:10:48;2.65;;;1.60;;
79640;SDS011;69115;49.904;14.390;2023-08-08T12:13:21;3.65;;;1.63;;
79640;SDS011;69115;49.904;14.390;2023-08-08T12:15:47;2.83;;;1.70;;
79640;SDS011;69115;49.904;14.390;2023-08-08T12:18:16;3.80;;;1.70;;
79640;SDS011;69115;49.904;14.390;2023-08-08T12:20:44;2.63;;;1.67;;
79640;SDS011;69115;49.904;14.390;2023-08-08T12:23:10;3.03;;;1.80;;
79640;SDS011;69115;49.904;14.390;2023-08-08T12:25:36;4.25;;;1.75;;
79640;SDS011;69115;49.904;14.390;2023-08-08T12:28:02;4.43;;;1.83;;
79640;SDS011;69115;49.904;14.390;2023-08-08T12:30:28;2.97;;;1.63;;
79640;SDS011;69115;49.904;14.390;2023-08-08T12:32:53;2.80;;;1.63;;
79640;SDS011;69115;49.904;14.390;2023-08-08T12:35:19;3.90;;;1.80;;
79640;SDS011;69115;49.904;14.390;2023-08-08T12:37:45;2.83;;;1.55;;
79640;SDS011;69115;49.904;14.390;2023-08-08T12:40:11;2.20;;;1.50;;
79640;SDS011;69115;49.904;14.390;2023-08-08T12:42:37;3.47;;;1.52;;
79640;SDS011;69115;49.904;14.390;2023-08-08T12:45:03;5.68;;;1.55;;
79640;SDS011;69115;49.904;14.390;2023-08-08T12:47:29;3.13;;;1.55;;
79640;SDS011;69115;49.904;14.390;2023-08-08T12:49:56;2.90;;;1.85;;
79640;SDS011;69115;49.904;14.390;2023-08-08T12:52:22;2.42;;;1.60;;
79640;SDS011;69115;49.904;14.390;2023-08-08T12:54:47;2.40;;;1.65;;
79640;SDS011;69115;49.904;14.390;2023-08-08T12:57:13;3.95;;;1.73;;
79640;SDS011;69115;49.904;14.390;2023-08-08T12:59:38;3.55;;;1.77;;
79640;SDS011;69115;49.904;14.390;2023-08-08T13:02:04;3.00;;;1.70;;
79640;SDS011;69115;49.904;14.390;2023-08-08T13:04:29;2.83;;;1.60;;
79640;SDS011;69115;49.904;14.390;2023-08-08T13:06:55;2.90;;;1.90;;
79640;SDS011;69115;49.904;14.390;2023-08-08T13:09:21;5.47;;;2.00;;
79640;SDS011;69115;49.904;14.390;2023-08-08T13:11:46;7.22;;;2.10;;
79640;SDS011;69115;49.904;14.390;2023-08-08T13:14:11;3.08;;;1.60;;
79640;SDS011;69115;49.904;14.390;2023-08-08T13:16:37;3.08;;;1.90;;
79640;SDS011;69115;49.904;14.390;2023-08-08T13:19:03;3.20;;;1.80;;
79640;SDS011;69115;49.904;14.390;2023-08-08T13:21:30;4.68;;;1.65;;
79640;SDS011;69115;49.904;14.390;2023-08-08T13:23:56;3.20;;;1.98;;
79640;SDS011;69115;49.904;14.390;2023-08-08T13:26:25;3.15;;;1.70;;
79640;SDS011;69115;49.904;14.390;2023-08-08T13:28:53;4.10;;;1.90;;
79640;SDS011;69115;49.904;14.390;2023-08-08T13:31:19;3.03;;;1.70;;
79640;SDS011;69115;49.904;14.390;2023-08-08T13:33:44;2.67;;;1.60;;
79640;SDS011;69115;49.904;14.390;2023-08-08T13:36:10;2.70;;;1.70;;
79640;SDS011;69115;49.904;14.390;2023-08-08T13:38:35;2.40;;;1.50;;
79640;SDS011;69115;49.904;14.390;2023-08-08T13:41:01;5.15;;;1.85;;
79640;SDS011;69115;49.904;14.390;2023-08-08T13:43:26;3.03;;;1.73;;
79640;SDS011;69115;49.904;14.390;2023-08-08T13:45:52;4.07;;;2.00;;
79640;SDS011;69115;49.904;14.390;2023-08-08T13:48:17;2.63;;;1.60;;
79640;SDS011;69115;49.904;14.390;2023-08-08T13:50:43;2.75;;;1.70;;
79640;SDS011;69115;49.904;14.390;2023-08-08T13:53:08;2.38;;;1.52;;
79640;SDS011;69115;49.904;14.390;2023-08-08T13:55:34;3.50;;;1.85;;
79640;SDS011;69115;49.904;14.390;2023-08-08T13:58:04;3.38;;;1.80;;
79640;SDS011;69115;49.904;14.390;2023-08-08T14:00:30;2.97;;;1.80;;
79640;SDS011;69115;49.904;14.390;2023-08-08T14:02:56;4.15;;;1.85;;
79640;SDS011;69115;49.904;14.390;2023-08-08T14:05:22;4.30;;;1.70;;
79640;SDS011;69115;49.904;14.390;2023-08-08T14:07:48;4.32;;;1.63;;
79640;SDS011;69115;49.904;14.390;2023-08-08T14:10:13;2.50;;;1.80;;
79640;SDS011;69115;49.904;14.390;2023-08-08T14:12:40;3.67;;;1.92;;
79640;SDS011;69115;49.904;14.390;2023-08-08T14:15:06;4.13;;;1.70;;
79640;SDS011;69115;49.904;14.390;2023-08-08T14:17:32;3.22;;;1.65;;
79640;SDS011;69115;49.904;14.390;2023-08-08T14:19:57;6.32;;;1.85;;
79640;SDS011;69115;49.904;14.390;2023-08-08T14:22:23;6.05;;;1.60;;
79640;SDS011;69115;49.904;14.390;2023-08-08T14:24:48;3.60;;;1.92;;
79640;SDS011;69115;49.904;14.390;2023-08-08T14:27:13;5.85;;;1.90;;
79640;SDS011;69115;49.904;14.390;2023-08-08T14:29:39;3.35;;;1.75;;
79640;SDS011;69115;49.904;14.390;2023-08-08T14:32:05;3.47;;;2.13;;
79640;SDS011;69115;49.904;14.390;2023-08-08T14:34:36;4.80;;;1.90;;
79640;SDS011;69115;49.904;14.390;2023-08-08T14:37:03;3.75;;;1.60;;
79640;SDS011;69115;49.904;14.390;2023-08-08T14:39:29;2.83;;;1.80;;
79640;SDS011;69115;49.904;14.390;2023-08-08T14:41:55;3.05;;;1.70;;